Etusivu
METAR-TAF:

METAR-TAF

Lentoasemat :

Phillip Goldston

Belize City, Belize

Leveyspiiri: 17-32N, Pituuspiiri: 088-18W, korkeus merenpinnasta: 5 m

Tämänhetkinen sää

Tämä raportti tehtiin 20 minuuttia sitten, kello 00.00 UTC
Tuuli 3 kn idästä
Lämpötila 30°C
Kosteus 75%
Ilmanpaine 1010 hPa
Näkyvyys 10 km tai enemmän
Muutamia pilviä 2200 ft:n korkeudessa

METAR: MZBZ 260000Z 10003KT 9999 FEW022 30/25 A2983 Q1010 NOSIG RMK HAZY

Aika: 18:20 (00:20 UTC)

Sääennuste

Tämä raportti tehtiin 3 tuntia ja 20 minuuttia sitten, kello 21.00 UTC
Ennuste voimassa 26. päivästä klo 00 UTC - 26. päivään klo 24 UTC
Tuuli 7 kn idästä
Näkyvyys 10 km tai enemmän
Hajanaisia pilviä 2300 ft:n korkeudessa
Tulossa
26. päivästä klo 08 UTC - 26. päivään klo 10 UTC
Tuuli 2 kn eri suunnista
Tulossa
26. päivästä klo 15 UTC - 26. päivään klo 17 UTC
Tuuli 6 kn koillisesta

TAF: MZBZ 252100Z 2600/2624 09007KT 9999 SCT023 BECMG 2608/2610 VRB02KT BECMG 2615/2617 05006KT

Säähavainnot ja -ennusteet yli 4000 lentoasemalta (METAR- ja TAF-raportit).

Käytössä olevat sääasemat on merkitty karttaan keltaisilla ja punaisilla pisteillä.

Aseta hiiri pisteen päälle nähdäksesi sääaseman nimen.

Klikkaa sitten nähdäksesi säähavainnot ja -ennusteet.

Kartan vaihtaminen: klikkaa mustalla rastilla varustettuja vihreitä pisteitä, niin voit zoomata sisään; viivalla varustettua vihreää pistettä, niin voit zoomata ulos tai vihreitä nuolia, niin pääset viereisille kartoille.


METAR-TAF: